sensor_id;sensor_type;location;lat;lon;timestamp;temperature;humidity
78514;SHT31;67814;51.976;5.810;2023-05-31T00:01:17;14.6;65.8
78514;SHT31;67814;51.976;5.810;2023-05-31T00:03:48;14.5;65.9
78514;SHT31;67814;51.976;5.810;2023-05-31T00:06:16;14.5;66.1
78514;SHT31;67814;51.976;5.810;2023-05-31T00:08:45;14.5;66.3
78514;SHT31;67814;51.976;5.810;2023-05-31T00:11:13;14.5;66.3
78514;SHT31;67814;51.976;5.810;2023-05-31T00:13:42;14.4;66.3
78514;SHT31;67814;51.976;5.810;2023-05-31T00:16:10;14.4;66.4
78514;SHT31;67814;51.976;5.810;2023-05-31T00:18:39;14.4;66.5
78514;SHT31;67814;51.976;5.810;2023-05-31T00:21:08;14.4;66.4
78514;SHT31;67814;51.976;5.810;2023-05-31T00:23:36;14.4;66.4
78514;SHT31;67814;51.976;5.810;2023-05-31T00:26:05;14.4;66.5
78514;SHT31;67814;51.976;5.810;2023-05-31T00:28:34;14.4;66.7
78514;SHT31;67814;51.976;5.810;2023-05-31T00:31:02;14.4;66.6
78514;SHT31;67814;51.976;5.810;2023-05-31T00:33:31;14.3;66.7
78514;SHT31;67814;51.976;5.810;2023-05-31T00:35:59;14.3;66.8
78514;SHT31;67814;51.976;5.810;2023-05-31T00:38:27;14.3;66.8
78514;SHT31;67814;51.976;5.810;2023-05-31T00:40:56;14.3;66.9
78514;SHT31;67814;51.976;5.810;2023-05-31T00:43:25;14.2;67.0
78514;SHT31;67814;51.976;5.810;2023-05-31T00:45:53;14.2;67.2
78514;SHT31;67814;51.976;5.810;2023-05-31T00:48:23;14.2;67.3
78514;SHT31;67814;51.976;5.810;2023-05-31T00:50:51;14.2;67.4
78514;SHT31;67814;51.976;5.810;2023-05-31T00:53:23;14.1;67.3
78514;SHT31;67814;51.976;5.810;2023-05-31T00:55:52;14.1;67.4
78514;SHT31;67814;51.976;5.810;2023-05-31T00:58:22;14.1;67.4
78514;SHT31;67814;51.976;5.810;2023-05-31T01:00:52;14.1;67.5
78514;SHT31;67814;51.976;5.810;2023-05-31T01:03:21;14.1;67.5
78514;SHT31;67814;51.976;5.810;2023-05-31T01:05:50;14.0;67.6
78514;SHT31;67814;51.976;5.810;2023-05-31T01:08:19;14.0;67.7
78514;SHT31;67814;51.976;5.810;2023-05-31T01:10:52;14.0;67.8
78514;SHT31;67814;51.976;5.810;2023-05-31T01:13:31;14.0;68.0
78514;SHT31;67814;51.976;5.810;2023-05-31T01:16:08;13.9;68.0
78514;SHT31;67814;51.976;5.810;2023-05-31T01:18:43;13.9;68.1
78514;SHT31;67814;51.976;5.810;2023-05-31T01:21:16;13.9;68.2
78514;SHT31;67814;51.976;5.810;2023-05-31T01:23:57;13.9;68.4
78514;SHT31;67814;51.976;5.810;2023-05-31T01:26:43;13.8;68.4
78514;SHT31;67814;51.976;5.810;2023-05-31T01:29:17;13.8;68.6
78514;SHT31;67814;51.976;5.810;2023-05-31T01:31:48;13.8;68.6
78514;SHT31;67814;51.976;5.810;2023-05-31T01:34:18;13.7;68.8
78514;SHT31;67814;51.976;5.810;2023-05-31T01:36:47;13.7;68.9
78514;SHT31;67814;51.976;5.810;2023-05-31T01:39:17;13.7;68.9
78514;SHT31;67814;51.976;5.810;2023-05-31T01:41:48;13.7;69.0
78514;SHT31;67814;51.976;5.810;2023-05-31T01:44:19;13.6;69.1
78514;SHT31;67814;51.976;5.810;2023-05-31T01:46:48;13.6;69.2
78514;SHT31;67814;51.976;5.810;2023-05-31T01:49:18;13.6;69.2
78514;SHT31;67814;51.976;5.810;2023-05-31T01:51:48;13.6;69.2
78514;SHT31;67814;51.976;5.810;2023-05-31T01:54:18;13.6;69.3
78514;SHT31;67814;51.976;5.810;2023-05-31T01:56:47;13.6;69.3
78514;SHT31;67814;51.976;5.810;2023-05-31T01:59:17;13.6;69.4
78514;SHT31;67814;51.976;5.810;2023-05-31T02:01:47;13.6;69.3
78514;SHT31;67814;51.976;5.810;2023-05-31T02:04:18;13.6;69.4
78514;SHT31;67814;51.976;5.810;2023-05-31T02:06:47;13.6;69.3
78514;SHT31;67814;51.976;5.810;2023-05-31T02:09:18;13.6;69.3
78514;SHT31;67814;51.976;5.810;2023-05-31T02:11:47;13.6;69.3
78514;SHT31;67814;51.976;5.810;2023-05-31T02:14:16;13.6;69.3
78514;SHT31;67814;51.976;5.810;2023-05-31T02:16:44;13.6;69.3
78514;SHT31;67814;51.976;5.810;2023-05-31T02:19:13;13.6;69.5
78514;SHT31;67814;51.976;5.810;2023-05-31T02:21:42;13.5;69.5
78514;SHT31;67814;51.976;5.810;2023-05-31T02:24:10;13.5;69.6
78514;SHT31;67814;51.976;5.810;2023-05-31T02:26:39;13.5;69.7
78514;SHT31;67814;51.976;5.810;2023-05-31T02:29:07;13.5;69.7
78514;SHT31;67814;51.976;5.810;2023-05-31T02:31:36;13.5;69.7
78514;SHT31;67814;51.976;5.810;2023-05-31T02:34:05;13.5;69.6
78514;SHT31;67814;51.976;5.810;2023-05-31T02:36:36;13.5;69.5
78514;SHT31;67814;51.976;5.810;2023-05-31T02:39:06;13.5;69.6
78514;SHT31;67814;51.976;5.810;2023-05-31T02:41:35;13.5;69.6
78514;SHT31;67814;51.976;5.810;2023-05-31T02:44:03;13.5;69.6
78514;SHT31;67814;51.976;5.810;2023-05-31T02:46:32;13.5;69.6
78514;SHT31;67814;51.976;5.810;2023-05-31T02:49:00;13.5;69.6
78514;SHT31;67814;51.976;5.810;2023-05-31T02:51:31;13.5;69.6
78514;SHT31;67814;51.976;5.810;2023-05-31T02:53:59;13.5;69.6
78514;SHT31;67814;51.976;5.810;2023-05-31T02:56:27;13.5;69.7
78514;SHT31;67814;51.976;5.810;2023-05-31T02:58:57;13.5;69.8
78514;SHT31;67814;51.976;5.810;2023-05-31T03:01:25;13.5;69.8
78514;SHT31;67814;51.976;5.810;2023-05-31T03:03:53;13.5;69.7
78514;SHT31;67814;51.976;5.810;2023-05-31T03:06:22;13.5;69.7
78514;SHT31;67814;51.976;5.810;2023-05-31T03:08:51;13.5;69.8
78514;SHT31;67814;51.976;5.810;2023-05-31T03:11:19;13.4;69.7
78514;SHT31;67814;51.976;5.810;2023-05-31T03:13:48;13.4;69.7
78514;SHT31;67814;51.976;5.810;2023-05-31T03:16:16;13.4;69.7
78514;SHT31;67814;51.976;5.810;2023-05-31T03:18:46;13.4;69.9
78514;SHT31;67814;51.976;5.810;2023-05-31T03:21:15;13.4;69.8
78514;SHT31;67814;51.976;5.810;2023-05-31T03:23:44;13.4;69.9
78514;SHT31;67814;51.976;5.810;2023-05-31T03:26:12;13.3;70.1
78514;SHT31;67814;51.976;5.810;2023-05-31T03:28:41;13.3;70.3
78514;SHT31;67814;51.976;5.810;2023-05-31T03:31:09;13.3;70.2
78514;SHT31;67814;51.976;5.810;2023-05-31T03:33:38;13.3;70.1
78514;SHT31;67814;51.976;5.810;2023-05-31T03:36:09;13.4;70.1
78514;SHT31;67814;51.976;5.810;2023-05-31T03:38:38;13.4;70.1
78514;SHT31;67814;51.976;5.810;2023-05-31T03:41:06;13.4;70.1
78514;SHT31;67814;51.976;5.810;2023-05-31T03:43:35;13.4;70.1
78514;SHT31;67814;51.976;5.810;2023-05-31T03:46:04;13.4;70.0
78514;SHT31;67814;51.976;5.810;2023-05-31T03:48:32;13.4;70.1
78514;SHT31;67814;51.976;5.810;2023-05-31T03:51:01;13.4;70.1
78514;SHT31;67814;51.976;5.810;2023-05-31T03:53:29;13.4;70.1
78514;SHT31;67814;51.976;5.810;2023-05-31T03:55:58;13.4;70.1
78514;SHT31;67814;51.976;5.810;2023-05-31T03:58:27;13.4;70.1
78514;SHT31;67814;51.976;5.810;2023-05-31T04:00:55;13.4;70.1
78514;SHT31;67814;51.976;5.810;2023-05-31T04:03:24;13.4;70.1
78514;SHT31;67814;51.976;5.810;2023-05-31T04:05:52;13.4;70.2
78514;SHT31;67814;51.976;5.810;2023-05-31T04:08:23;13.3;70.3
78514;SHT31;67814;51.976;5.810;2023-05-31T04:10:51;13.3;70.4
78514;SHT31;67814;51.976;5.810;2023-05-31T04:13:20;13.3;70.6
78514;SHT31;67814;51.976;5.810;2023-05-31T04:15:50;13.2;70.7
78514;SHT31;67814;51.976;5.810;2023-05-31T04:18:19;13.2;71.0
78514;SHT31;67814;51.976;5.810;2023-05-31T04:20:48;13.2;71.0
78514;SHT31;67814;51.976;5.810;2023-05-31T04:23:16;13.2;71.3
78514;SHT31;67814;51.976;5.810;2023-05-31T04:25:45;13.2;71.1
78514;SHT31;67814;51.976;5.810;2023-05-31T04:28:14;13.3;71.0
78514;SHT31;67814;51.976;5.810;2023-05-31T04:30:45;13.3;70.9
78514;SHT31;67814;51.976;5.810;2023-05-31T04:33:14;13.3;70.9
78514;SHT31;67814;51.976;5.810;2023-05-31T04:35:45;13.3;71.0
78514;SHT31;67814;51.976;5.810;2023-05-31T04:38:14;13.3;71.0
78514;SHT31;67814;51.976;5.810;2023-05-31T04:40:44;13.3;71.2
78514;SHT31;67814;51.976;5.810;2023-05-31T04:43:15;13.3;71.1
78514;SHT31;67814;51.976;5.810;2023-05-31T04:45:44;13.3;71.0
78514;SHT31;67814;51.976;5.810;2023-05-31T04:48:13;13.4;71.1
78514;SHT31;67814;51.976;5.810;2023-05-31T04:50:45;13.4;71.2
78514;SHT31;67814;51.976;5.810;2023-05-31T04:53:14;13.4;71.3
78514;SHT31;67814;51.976;5.810;2023-05-31T04:55:43;13.5;71.0
78514;SHT31;67814;51.976;5.810;2023-05-31T04:58:12;13.5;70.9
78514;SHT31;67814;51.976;5.810;2023-05-31T05:00:41;13.6;71.1
78514;SHT31;67814;51.976;5.810;2023-05-31T05:03:12;13.6;70.8
78514;SHT31;67814;51.976;5.810;2023-05-31T05:05:42;13.7;70.5
78514;SHT31;67814;51.976;5.810;2023-05-31T05:08:11;13.8;70.4
78514;SHT31;67814;51.976;5.810;2023-05-31T05:10:41;13.9;70.1
78514;SHT31;67814;51.976;5.810;2023-05-31T05:13:09;14.0;69.6
78514;SHT31;67814;51.976;5.810;2023-05-31T05:15:38;14.1;69.4
78514;SHT31;67814;51.976;5.810;2023-05-31T05:18:07;14.2;68.9
78514;SHT31;67814;51.976;5.810;2023-05-31T05:20:35;14.3;68.7
78514;SHT31;67814;51.976;5.810;2023-05-31T05:23:04;14.4;68.4
78514;SHT31;67814;51.976;5.810;2023-05-31T05:25:35;14.5;68.1
78514;SHT31;67814;51.976;5.810;2023-05-31T05:28:04;14.6;67.8
78514;SHT31;67814;51.976;5.810;2023-05-31T05:30:32;14.8;67.0
78514;SHT31;67814;51.976;5.810;2023-05-31T05:33:02;14.9;66.5
78514;SHT31;67814;51.976;5.810;2023-05-31T05:35:31;15.0;66.2
78514;SHT31;67814;51.976;5.810;2023-05-31T05:37:59;15.1;66.4
78514;SHT31;67814;51.976;5.810;2023-05-31T05:40:28;15.2;66.4
78514;SHT31;67814;51.976;5.810;2023-05-31T05:42:56;15.4;65.5
78514;SHT31;67814;51.976;5.810;2023-05-31T05:45:25;15.6;64.7
78514;SHT31;67814;51.976;5.810;2023-05-31T05:47:54;15.8;63.8
78514;SHT31;67814;51.976;5.810;2023-05-31T05:50:24;16.0;62.6
78514;SHT31;67814;51.976;5.810;2023-05-31T05:52:52;16.3;62.2
78514;SHT31;67814;51.976;5.810;2023-05-31T05:55:23;16.6;62.6
78514;SHT31;67814;51.976;5.810;2023-05-31T05:57:52;16.8;60.4
78514;SHT31;67814;51.976;5.810;2023-05-31T06:00:21;17.0;61.0
78514;SHT31;67814;51.976;5.810;2023-05-31T06:02:51;17.2;59.2
78514;SHT31;67814;51.976;5.810;2023-05-31T06:05:19;17.5;58.7
78514;SHT31;67814;51.976;5.810;2023-05-31T06:07:52;17.7;57.1
78514;SHT31;67814;51.976;5.810;2023-05-31T06:10:21;17.9;56.6
78514;SHT31;67814;51.976;5.810;2023-05-31T06:12:50;18.0;56.2
78514;SHT31;67814;51.976;5.810;2023-05-31T06:15:18;18.1;55.6
78514;SHT31;67814;51.976;5.810;2023-05-31T06:17:47;18.3;55.5
78514;SHT31;67814;51.976;5.810;2023-05-31T06:20:16;18.4;54.9
78514;SHT31;67814;51.976;5.810;2023-05-31T06:22:45;18.6;54.5
78514;SHT31;67814;51.976;5.810;2023-05-31T06:25:14;18.8;54.1
78514;SHT31;67814;51.976;5.810;2023-05-31T06:27:44;18.9;53.7
78514;SHT31;67814;51.976;5.810;2023-05-31T06:30:13;19.2;53.2
78514;SHT31;67814;51.976;5.810;2023-05-31T06:32:42;19.4;52.2
78514;SHT31;67814;51.976;5.810;2023-05-31T06:35:13;19.6;51.7
78514;SHT31;67814;51.976;5.810;2023-05-31T06:37:41;19.9;51.1
78514;SHT31;67814;51.976;5.810;2023-05-31T06:40:13;20.1;50.8
78514;SHT31;67814;51.976;5.810;2023-05-31T06:42:41;20.2;50.6
78514;SHT31;67814;51.976;5.810;2023-05-31T06:45:10;20.4;50.3
78514;SHT31;67814;51.976;5.810;2023-05-31T06:47:39;20.6;49.8
78514;SHT31;67814;51.976;5.810;2023-05-31T06:50:10;20.8;49.4
78514;SHT31;67814;51.976;5.810;2023-05-31T06:52:39;21.0;47.5
78514;SHT31;67814;51.976;5.810;2023-05-31T06:55:08;21.1;47.6
78514;SHT31;67814;51.976;5.810;2023-05-31T06:57:37;21.2;49.1
78514;SHT31;67814;51.976;5.810;2023-05-31T07:00:06;21.4;47.4
78514;SHT31;67814;51.976;5.810;2023-05-31T07:02:37;21.6;46.8
78514;SHT31;67814;51.976;5.810;2023-05-31T07:05:06;21.7;46.1
78514;SHT31;67814;51.976;5.810;2023-05-31T07:07:35;21.8;46.3
78514;SHT31;67814;51.976;5.810;2023-05-31T07:10:04;21.9;46.7
78514;SHT31;67814;51.976;5.810;2023-05-31T07:12:32;22.0;46.4
78514;SHT31;67814;51.976;5.810;2023-05-31T07:15:01;22.2;45.6
78514;SHT31;67814;51.976;5.810;2023-05-31T07:17:29;22.4;45.8
78514;SHT31;67814;51.976;5.810;2023-05-31T07:20:00;22.5;45.0
78514;SHT31;67814;51.976;5.810;2023-05-31T07:22:30;22.6;45.6
78514;SHT31;67814;51.976;5.810;2023-05-31T07:24:58;22.7;44.0
78514;SHT31;67814;51.976;5.810;2023-05-31T07:27:27;22.8;44.8
78514;SHT31;67814;51.976;5.810;2023-05-31T07:29:55;22.8;44.1
78514;SHT31;67814;51.976;5.810;2023-05-31T07:32:24;22.9;44.2
78514;SHT31;67814;51.976;5.810;2023-05-31T07:34:54;23.0;44.8
78514;SHT31;67814;51.976;5.810;2023-05-31T07:37:23;23.1;43.4
78514;SHT31;67814;51.976;5.810;2023-05-31T07:39:51;23.2;43.0
78514;SHT31;67814;51.976;5.810;2023-05-31T07:42:20;23.3;43.1
78514;SHT31;67814;51.976;5.810;2023-05-31T07:44:48;23.3;43.2
78514;SHT31;67814;51.976;5.810;2023-05-31T07:47:17;23.3;42.8
78514;SHT31;67814;51.976;5.810;2023-05-31T07:49:46;23.4;42.5
78514;SHT31;67814;51.976;5.810;2023-05-31T07:52:18;23.3;42.3
78514;SHT31;67814;51.976;5.810;2023-05-31T07:54:48;23.2;43.0
78514;SHT31;67814;51.976;5.810;2023-05-31T07:57:17;23.1;44.3
78514;SHT31;67814;51.976;5.810;2023-05-31T07:59:47;23.0;44.4
78514;SHT31;67814;51.976;5.810;2023-05-31T08:02:17;22.9;44.2
78514;SHT31;67814;51.976;5.810;2023-05-31T08:04:45;22.8;44.0
78514;SHT31;67814;51.976;5.810;2023-05-31T08:07:14;22.8;44.6
78514;SHT31;67814;51.976;5.810;2023-05-31T08:09:42;22.7;45.0
78514;SHT31;67814;51.976;5.810;2023-05-31T08:12:13;22.7;44.4
78514;SHT31;67814;51.976;5.810;2023-05-31T08:14:42;22.6;45.1
78514;SHT31;67814;51.976;5.810;2023-05-31T08:17:10;22.6;44.1
78514;SHT31;67814;51.976;5.810;2023-05-31T08:19:39;22.5;44.3
78514;SHT31;67814;51.976;5.810;2023-05-31T08:22:08;22.3;45.5
78514;SHT31;67814;51.976;5.810;2023-05-31T08:24:38;22.2;45.3
78514;SHT31;67814;51.976;5.810;2023-05-31T08:27:07;22.2;45.5
78514;SHT31;67814;51.976;5.810;2023-05-31T08:29:35;22.1;45.9
78514;SHT31;67814;51.976;5.810;2023-05-31T08:32:04;22.1;46.0
78514;SHT31;67814;51.976;5.810;2023-05-31T08:34:33;22.0;45.2
78514;SHT31;67814;51.976;5.810;2023-05-31T08:37:02;21.9;46.5
78514;SHT31;67814;51.976;5.810;2023-05-31T08:39:30;21.9;46.5
78514;SHT31;67814;51.976;5.810;2023-05-31T08:42:02;21.9;45.9
78514;SHT31;67814;51.976;5.810;2023-05-31T08:44:32;21.9;45.8
78514;SHT31;67814;51.976;5.810;2023-05-31T08:47:11;21.8;46.0
78514;SHT31;67814;51.976;5.810;2023-05-31T08:49:42;21.8;47.1
78514;SHT31;67814;51.976;5.810;2023-05-31T08:52:12;21.9;46.4
78514;SHT31;67814;51.976;5.810;2023-05-31T08:54:43;21.9;45.8
78514;SHT31;67814;51.976;5.810;2023-05-31T08:57:14;21.9;46.5
78514;SHT31;67814;51.976;5.810;2023-05-31T08:59:44;21.9;45.7
78514;SHT31;67814;51.976;5.810;2023-05-31T09:02:14;21.9;45.6
78514;SHT31;67814;51.976;5.810;2023-05-31T09:04:44;21.9;45.2
78514;SHT31;67814;51.976;5.810;2023-05-31T09:07:13;21.9;45.4
78514;SHT31;67814;51.976;5.810;2023-05-31T09:09:41;21.9;45.9
78514;SHT31;67814;51.976;5.810;2023-05-31T09:12:11;21.9;46.5
78514;SHT31;67814;51.976;5.810;2023-05-31T09:14:39;22.0;45.8
78514;SHT31;67814;51.976;5.810;2023-05-31T09:17:08;22.0;46.3
78514;SHT31;67814;51.976;5.810;2023-05-31T09:19:52;22.1;45.4
78514;SHT31;67814;51.976;5.810;2023-05-31T09:22:23;22.1;45.7
78514;SHT31;67814;51.976;5.810;2023-05-31T09:24:55;22.2;46.0
78514;SHT31;67814;51.976;5.810;2023-05-31T09:27:26;22.3;45.9
78514;SHT31;67814;51.976;5.810;2023-05-31T09:29:55;22.3;45.4
78514;SHT31;67814;51.976;5.810;2023-05-31T09:32:23;22.4;44.8
78514;SHT31;67814;51.976;5.810;2023-05-31T09:35:05;22.5;44.6
78514;SHT31;67814;51.976;5.810;2023-05-31T09:37:42;22.5;44.9
78514;SHT31;67814;51.976;5.810;2023-05-31T09:40:12;22.6;44.2
78514;SHT31;67814;51.976;5.810;2023-05-31T09:42:47;22.7;43.8
78514;SHT31;67814;51.976;5.810;2023-05-31T09:45:17;22.7;44.2
78514;SHT31;67814;51.976;5.810;2023-05-31T09:47:48;22.8;43.8
78514;SHT31;67814;51.976;5.810;2023-05-31T09:50:18;22.8;43.4
78514;SHT31;67814;51.976;5.810;2023-05-31T09:52:49;22.8;43.2
78514;SHT31;67814;51.976;5.810;2023-05-31T09:55:23;22.8;42.7
78514;SHT31;67814;51.976;5.810;2023-05-31T09:57:52;22.9;42.8
78514;SHT31;67814;51.976;5.810;2023-05-31T10:00:25;22.9;43.3
78514;SHT31;67814;51.976;5.810;2023-05-31T10:02:54;23.0;42.2
78514;SHT31;67814;51.976;5.810;2023-05-31T10:05:22;23.0;42.3
78514;SHT31;67814;51.976;5.810;2023-05-31T10:07:52;23.0;41.5
78514;SHT31;67814;51.976;5.810;2023-05-31T10:10:21;23.1;41.8
78514;SHT31;67814;51.976;5.810;2023-05-31T10:12:51;23.1;42.6
78514;SHT31;67814;51.976;5.810;2023-05-31T10:15:23;23.2;42.0
78514;SHT31;67814;51.976;5.810;2023-05-31T10:17:56;23.2;42.0
78514;SHT31;67814;51.976;5.810;2023-05-31T10:20:30;23.2;41.9
78514;SHT31;67814;51.976;5.810;2023-05-31T10:23:01;23.3;41.4
78514;SHT31;67814;51.976;5.810;2023-05-31T10:25:38;23.3;41.0
78514;SHT31;67814;51.976;5.810;2023-05-31T10:28:10;23.4;41.0
78514;SHT31;67814;51.976;5.810;2023-05-31T10:30:42;23.4;41.2
78514;SHT31;67814;51.976;5.810;2023-05-31T10:33:14;23.4;41.5
78514;SHT31;67814;51.976;5.810;2023-05-31T10:35:44;23.5;40.6
78514;SHT31;67814;51.976;5.810;2023-05-31T10:38:14;23.5;41.5
78514;SHT31;67814;51.976;5.810;2023-05-31T10:40:47;23.5;40.5
78514;SHT31;67814;51.976;5.810;2023-05-31T10:43:20;23.5;40.8
78514;SHT31;67814;51.976;5.810;2023-05-31T10:45:55;23.6;41.0
78514;SHT31;67814;51.976;5.810;2023-05-31T10:48:37;23.6;41.2
78514;SHT31;67814;51.976;5.810;2023-05-31T10:51:04;23.6;40.8
78514;SHT31;67814;51.976;5.810;2023-05-31T10:53:35;23.6;41.9
78514;SHT31;67814;51.976;5.810;2023-05-31T10:56:06;23.7;41.0
78514;SHT31;67814;51.976;5.810;2023-05-31T10:58:37;23.7;41.4
78514;SHT31;67814;51.976;5.810;2023-05-31T11:01:09;23.7;41.4
78514;SHT31;67814;51.976;5.810;2023-05-31T11:03:46;23.8;41.4
78514;SHT31;67814;51.976;5.810;2023-05-31T11:06:16;23.8;40.7
78514;SHT31;67814;51.976;5.810;2023-05-31T11:08:59;23.8;41.0
78514;SHT31;67814;51.976;5.810;2023-05-31T11:11:46;23.9;41.6
78514;SHT31;67814;51.976;5.810;2023-05-31T11:14:27;23.9;40.8
78514;SHT31;67814;51.976;5.810;2023-05-31T11:17:16;23.9;41.3
78514;SHT31;67814;51.976;5.810;2023-05-31T11:19:54;24.0;40.9
78514;SHT31;67814;51.976;5.810;2023-05-31T11:22:26;24.1;40.0
78514;SHT31;67814;51.976;5.810;2023-05-31T11:24:56;24.1;39.7
78514;SHT31;67814;51.976;5.810;2023-05-31T11:27:37;24.2;39.9
78514;SHT31;67814;51.976;5.810;2023-05-31T11:30:08;24.2;40.2
78514;SHT31;67814;51.976;5.810;2023-05-31T11:34:56;24.2;40.2
78514;SHT31;67814;51.976;5.810;2023-05-31T11:37:28;24.2;40.3
78514;SHT31;67814;51.976;5.810;2023-05-31T11:40:02;24.2;39.5
78514;SHT31;67814;51.976;5.810;2023-05-31T11:42:35;24.3;39.1
78514;SHT31;67814;51.976;5.810;2023-05-31T11:45:07;24.3;40.2
78514;SHT31;67814;51.976;5.810;2023-05-31T11:47:44;24.4;39.5
78514;SHT31;67814;51.976;5.810;2023-05-31T11:50:13;24.4;39.2
78514;SHT31;67814;51.976;5.810;2023-05-31T11:52:43;24.4;39.1
78514;SHT31;67814;51.976;5.810;2023-05-31T11:55:15;24.4;39.3
78514;SHT31;67814;51.976;5.810;2023-05-31T11:57:47;24.4;38.6
78514;SHT31;67814;51.976;5.810;2023-05-31T12:00:19;24.4;39.3
78514;SHT31;67814;51.976;5.810;2023-05-31T12:02:52;24.5;38.8
78514;SHT31;67814;51.976;5.810;2023-05-31T12:05:23;24.5;39.3
78514;SHT31;67814;51.976;5.810;2023-05-31T12:07:55;24.5;39.7
78514;SHT31;67814;51.976;5.810;2023-05-31T12:10:27;24.5;38.9
78514;SHT31;67814;51.976;5.810;2023-05-31T12:12:58;24.6;39.7
78514;SHT31;67814;51.976;5.810;2023-05-31T12:15:29;24.6;39.1
78514;SHT31;67814;51.976;5.810;2023-05-31T12:17:59;24.7;39.4
78514;SHT31;67814;51.976;5.810;2023-05-31T12:20:29;24.7;39.0
78514;SHT31;67814;51.976;5.810;2023-05-31T12:23:10;24.7;39.0
78514;SHT31;67814;51.976;5.810;2023-05-31T12:25:45;24.8;38.1
78514;SHT31;67814;51.976;5.810;2023-05-31T12:28:15;24.8;38.2
78514;SHT31;67814;51.976;5.810;2023-05-31T12:30:46;24.8;38.9
78514;SHT31;67814;51.976;5.810;2023-05-31T12:33:15;24.9;38.7
78514;SHT31;67814;51.976;5.810;2023-05-31T12:35:46;24.9;38.7
78514;SHT31;67814;51.976;5.810;2023-05-31T12:38:15;24.9;38.5
78514;SHT31;67814;51.976;5.810;2023-05-31T12:40:44;25.0;39.0
78514;SHT31;67814;51.976;5.810;2023-05-31T12:43:13;25.0;38.8
78514;SHT31;67814;51.976;5.810;2023-05-31T12:45:44;25.0;38.7
78514;SHT31;67814;51.976;5.810;2023-05-31T12:48:13;25.0;38.8
78514;SHT31;67814;51.976;5.810;2023-05-31T12:50:47;25.0;38.7
78514;SHT31;67814;51.976;5.810;2023-05-31T12:53:16;25.0;38.9
78514;SHT31;67814;51.976;5.810;2023-05-31T12:55:45;25.1;38.2
78514;SHT31;67814;51.976;5.810;2023-05-31T12:58:13;25.1;37.4
78514;SHT31;67814;51.976;5.810;2023-05-31T13:00:42;25.1;36.4
78514;SHT31;67814;51.976;5.810;2023-05-31T13:03:13;25.1;37.3
78514;SHT31;67814;51.976;5.810;2023-05-31T13:05:41;25.1;37.2
78514;SHT31;67814;51.976;5.810;2023-05-31T13:08:10;25.1;38.2
78514;SHT31;67814;51.976;5.810;2023-05-31T13:10:38;25.1;38.5
78514;SHT31;67814;51.976;5.810;2023-05-31T13:13:07;25.1;38.1
78514;SHT31;67814;51.976;5.810;2023-05-31T13:15:36;25.1;38.1
78514;SHT31;67814;51.976;5.810;2023-05-31T13:18:07;25.1;38.3
78514;SHT31;67814;51.976;5.810;2023-05-31T13:20:35;25.2;38.9
78514;SHT31;67814;51.976;5.810;2023-05-31T13:23:04;25.2;38.7
78514;SHT31;67814;51.976;5.810;2023-05-31T13:25:33;25.3;37.6
78514;SHT31;67814;51.976;5.810;2023-05-31T13:28:01;25.3;37.9
78514;SHT31;67814;51.976;5.810;2023-05-31T13:30:30;25.3;38.1
78514;SHT31;67814;51.976;5.810;2023-05-31T13:32:59;25.3;36.7
78514;SHT31;67814;51.976;5.810;2023-05-31T13:35:27;25.3;36.8
78514;SHT31;67814;51.976;5.810;2023-05-31T13:37:56;25.3;37.0
78514;SHT31;67814;51.976;5.810;2023-05-31T13:40:25;25.3;37.4
78514;SHT31;67814;51.976;5.810;2023-05-31T13:42:54;25.3;37.9
78514;SHT31;67814;51.976;5.810;2023-05-31T13:45:22;25.3;38.1
78514;SHT31;67814;51.976;5.810;2023-05-31T13:47:53;25.4;37.9
78514;SHT31;67814;51.976;5.810;2023-05-31T13:50:22;25.4;37.7
78514;SHT31;67814;51.976;5.810;2023-05-31T13:52:50;25.5;37.8
78514;SHT31;67814;51.976;5.810;2023-05-31T13:55:19;25.5;37.5
78514;SHT31;67814;51.976;5.810;2023-05-31T13:57:48;25.5;37.4
78514;SHT31;67814;51.976;5.810;2023-05-31T14:00:17;25.6;38.0
78514;SHT31;67814;51.976;5.810;2023-05-31T14:02:46;25.6;36.9
78514;SHT31;67814;51.976;5.810;2023-05-31T14:05:16;25.6;36.4
78514;SHT31;67814;51.976;5.810;2023-05-31T14:07:45;25.6;37.1
78514;SHT31;67814;51.976;5.810;2023-05-31T14:10:15;25.6;36.8
78514;SHT31;67814;51.976;5.810;2023-05-31T14:12:44;25.6;36.8
78514;SHT31;67814;51.976;5.810;2023-05-31T14:15:13;25.6;37.4
78514;SHT31;67814;51.976;5.810;2023-05-31T14:17:42;25.6;37.9
78514;SHT31;67814;51.976;5.810;2023-05-31T14:20:11;25.7;37.3
78514;SHT31;67814;51.976;5.810;2023-05-31T14:22:40;25.7;36.0
78514;SHT31;67814;51.976;5.810;2023-05-31T14:25:09;25.7;36.5
78514;SHT31;67814;51.976;5.810;2023-05-31T14:27:38;25.7;36.7
78514;SHT31;67814;51.976;5.810;2023-05-31T14:30:07;25.7;36.5
78514;SHT31;67814;51.976;5.810;2023-05-31T14:32:36;25.7;36.2
78514;SHT31;67814;51.976;5.810;2023-05-31T14:35:05;25.7;36.3
78514;SHT31;67814;51.976;5.810;2023-05-31T14:37:36;25.7;36.7
78514;SHT31;67814;51.976;5.810;2023-05-31T14:40:06;25.7;36.4
78514;SHT31;67814;51.976;5.810;2023-05-31T14:42:35;25.7;36.1
78514;SHT31;67814;51.976;5.810;2023-05-31T14:45:04;25.7;35.9
78514;SHT31;67814;51.976;5.810;2023-05-31T14:47:33;25.7;36.0
78514;SHT31;67814;51.976;5.810;2023-05-31T14:50:03;25.7;35.7
78514;SHT31;67814;51.976;5.810;2023-05-31T14:52:32;25.7;35.7
78514;SHT31;67814;51.976;5.810;2023-05-31T14:55:00;25.7;35.6
78514;SHT31;67814;51.976;5.810;2023-05-31T14:57:29;25.7;36.0
78514;SHT31;67814;51.976;5.810;2023-05-31T14:59:57;25.7;36.2
78514;SHT31;67814;51.976;5.810;2023-05-31T15:02:26;25.7;36.4
78514;SHT31;67814;51.976;5.810;2023-05-31T15:04:54;25.8;36.1
78514;SHT31;67814;51.976;5.810;2023-05-31T15:07:23;25.8;36.0
78514;SHT31;67814;51.976;5.810;2023-05-31T15:09:52;25.8;36.2
78514;SHT31;67814;51.976;5.810;2023-05-31T15:12:21;25.9;36.2
78514;SHT31;67814;51.976;5.810;2023-05-31T15:14:49;25.9;36.2
78514;SHT31;67814;51.976;5.810;2023-05-31T15:17:19;25.9;36.4
78514;SHT31;67814;51.976;5.810;2023-05-31T15:19:48;26.0;36.5
78514;SHT31;67814;51.976;5.810;2023-05-31T15:22:16;26.0;35.5
78514;SHT31;67814;51.976;5.810;2023-05-31T15:24:45;26.0;35.5
78514;SHT31;67814;51.976;5.810;2023-05-31T15:27:13;26.0;35.3
78514;SHT31;67814;51.976;5.810;2023-05-31T15:29:42;26.0;35.6
78514;SHT31;67814;51.976;5.810;2023-05-31T15:32:12;26.0;36.0
78514;SHT31;67814;51.976;5.810;2023-05-31T15:34:41;26.0;36.0
78514;SHT31;67814;51.976;5.810;2023-05-31T15:37:09;26.0;36.2
78514;SHT31;67814;51.976;5.810;2023-05-31T15:39:38;26.0;35.9
78514;SHT31;67814;51.976;5.810;2023-05-31T15:42:09;26.0;35.9
78514;SHT31;67814;51.976;5.810;2023-05-31T15:44:37;26.0;36.2
78514;SHT31;67814;51.976;5.810;2023-05-31T15:47:06;26.0;36.3
78514;SHT31;67814;51.976;5.810;2023-05-31T15:49:35;25.9;35.8
78514;SHT31;67814;51.976;5.810;2023-05-31T15:52:04;25.9;36.5
78514;SHT31;67814;51.976;5.810;2023-05-31T15:54:33;25.9;36.7
78514;SHT31;67814;51.976;5.810;2023-05-31T15:57:01;25.9;36.4
78514;SHT31;67814;51.976;5.810;2023-05-31T15:59:30;25.9;36.0
78514;SHT31;67814;51.976;5.810;2023-05-31T16:01:58;25.9;36.2
78514;SHT31;67814;51.976;5.810;2023-05-31T16:04:27;25.9;36.1
78514;SHT31;67814;51.976;5.810;2023-05-31T16:06:55;25.9;36.2
78514;SHT31;67814;51.976;5.810;2023-05-31T16:09:24;25.9;36.2
78514;SHT31;67814;51.976;5.810;2023-05-31T16:11:52;25.9;36.1
78514;SHT31;67814;51.976;5.810;2023-05-31T16:14:21;25.8;36.7
78514;SHT31;67814;51.976;5.810;2023-05-31T16:16:49;25.8;36.3
78514;SHT31;67814;51.976;5.810;2023-05-31T16:19:18;25.8;36.4
78514;SHT31;67814;51.976;5.810;2023-05-31T16:21:46;25.8;36.5